Time,TemperatureF,DewpointF,PressureIn,WindDirection,WindDirectionDegrees,WindSpeedMPH,WindSpeedGustMPH,Humidity,HourlyPrecipIn,Conditions,Clouds,dailyrainin,SolarRadiationWatts/m^2,SoftwareType,DateUTC
2013-03-28 00:06:00,57.7,28.8,29.87,SSW,205,0.0,0.0,33,0.00,,,0.00,0,Wunderground v.1.15,2013-03-28 07:06:00,
2013-03-28 00:16:00,57.5,28.6,29.88,SSW,205,0.0,0.0,33,0.00,,,0.00,0,Wunderground v.1.15,2013-03-28 07:16:00,
2013-03-28 00:26:00,57.3,28.4,29.88,SSW,205,0.0,0.0,33,0.00,,,0.00,0,Wunderground v.1.15,2013-03-28 07:26:00,
2013-03-28 00:31:00,57.0,28.9,29.87,SSW,205,0.0,0.0,34,0.00,,,0.00,0,Wunderground v.1.15,2013-03-28 07:31:00,
2013-03-28 00:36:00,56.7,28.6,29.87,SSW,205,0.0,0.0,34,0.00,,,0.00,0,Wunderground v.1.15,2013-03-28 07:36:00,
2013-03-28 00:41:00,56.2,28.2,29.88,SSW,205,0.0,0.0,34,0.00,,,0.00,0,Wunderground v.1.15,2013-03-28 07:41:00,
2013-03-28 00:46:00,55.9,28.6,29.88,SSW,205,0.0,0.0,35,0.00,,,0.00,0,Wunderground v.1.15,2013-03-28 07:46:00,
2013-03-28 00:51:00,55.6,27.6,29.88,SSW,205,0.0,0.0,34,0.00,,,0.00,0,Wunderground v.1.15,2013-03-28 07:51:00,
2013-03-28 01:01:00,55.8,28.5,29.88,SSW,205,0.0,0.0,35,0.00,,,0.00,0,Wunderground v.1.15,2013-03-28 08:01:00,
2013-03-28 01:11:00,55.1,27.9,29.89,SSW,205,0.0,0.0,35,0.00,,,0.00,0,Wunderground v.1.15,2013-03-28 08:11:00,
2013-03-28 01:16:00,55.0,28.5,29.89,SSW,205,0.0,0.0,36,0.00,,,0.00,0,Wunderground v.1.15,2013-03-28 08:16:00,
2013-03-28 01:21:00,56.2,28.9,29.88,SSW,205,0.0,0.0,35,0.00,,,0.00,0,Wunderground v.1.15,2013-03-28 08:21:00,
2013-03-28 01:31:00,57.2,29.1,29.88,SSW,205,0.0,0.0,34,0.00,,,0.00,0,Wunderground v.1.15,2013-03-28 08:31:00,
2013-03-28 01:41:00,56.1,28.1,29.88,SSW,205,0.0,0.0,34,0.00,,,0.00,0,Wunderground v.1.15,2013-03-28 08:41:00,
2013-03-28 01:46:00,55.9,27.9,29.88,SSW,205,0.0,0.0,34,0.00,,,0.00,0,Wunderground v.1.15,2013-03-28 08:46:00,
2013-03-28 01:51:00,54.9,27.7,29.89,SSW,205,0.0,0.0,35,0.00,,,0.00,0,Wunderground v.1.15,2013-03-28 08:51:00,
2013-03-28 01:56:00,54.2,27.8,29.89,SSW,205,0.0,0.0,36,0.00,,,0.00,0,Wunderground v.1.15,2013-03-28 08:56:00,
2013-03-28 02:06:00,54.2,28.5,29.90,SSW,205,0.0,0.0,37,0.00,,,0.00,0,Wunderground v.1.15,2013-03-28 09:06:00,
2013-03-28 02:11:00,53.8,27.4,29.90,SSW,205,0.0,0.0,36,0.00,,,0.00,0,Wunderground v.1.15,2013-03-28 09:11:00,
2013-03-28 02:16:00,53.6,27.9,29.90,SSW,205,0.0,0.0,37,0.00,,,0.00,0,Wunderground v.1.15,2013-03-28 09:16:00,
2013-03-28 02:21:00,52.4,27.5,29.90,SSW,205,0.0,0.0,38,0.00,,,0.00,0,Wunderground v.1.15,2013-03-28 09:21:00,
2013-03-28 02:26:00,52.2,28.0,29.90,SSW,205,0.0,0.0,39,0.00,,,0.00,0,Wunderground v.1.15,2013-03-28 09:26:00,
2013-03-28 02:36:00,51.9,27.7,29.90,SSW,205,0.0,0.0,39,0.00,,,0.00,0,Wunderground v.1.15,2013-03-28 09:36:00,
2013-03-28 02:41:00,50.7,26.6,29.90,SSW,205,0.0,0.0,39,0.00,,,0.00,0,Wunderground v.1.15,2013-03-28 09:41:00,
2013-03-28 02:46:00,50.4,25.7,29.91,SSW,205,0.0,0.0,38,0.00,,,0.00,0,Wunderground v.1.15,2013-03-28 09:46:00,
2013-03-28 02:51:00,49.4,25.4,29.92,SSW,205,0.0,0.0,39,0.00,,,0.00,0,Wunderground v.1.15,2013-03-28 09:51:00,
2013-03-28 03:01:00,49.0,26.9,29.91,SSW,205,0.0,0.0,42,0.00,,,0.00,0,Wunderground v.1.15,2013-03-28 10:01:00,
2013-03-28 03:06:00,50.0,26.0,29.91,SSW,205,0.0,0.0,39,0.00,,,0.00,0,Wunderground v.1.15,2013-03-28 10:06:00,
2013-03-28 03:16:00,48.9,25.6,29.91,SSW,205,0.0,0.0,40,0.00,,,0.00,0,Wunderground v.1.15,2013-03-28 10:16:00,
2013-03-28 03:21:00,48.7,26.6,29.91,SSW,205,0.0,0.0,42,0.00,,,0.00,0,Wunderground v.1.15,2013-03-28 10:21:00,
2013-03-28 03:26:00,47.8,24.0,29.92,SSW,205,0.0,0.0,39,0.00,,,0.00,0,Wunderground v.1.15,2013-03-28 10:26:00,
2013-03-28 03:36:00,46.7,24.8,29.92,SSW,205,0.0,0.0,42,0.00,,,0.00,0,Wunderground v.1.15,2013-03-28 10:36:00,
2013-03-28 03:41:00,46.5,25.7,29.92,SSW,205,0.0,0.0,44,0.00,,,0.00,0,Wunderground v.1.15,2013-03-28 10:41:00,
2013-03-28 03:51:00,45.8,25.6,29.92,SSW,205,0.0,0.0,45,0.00,,,0.00,0,Wunderground v.1.15,2013-03-28 10:51:00,
2013-03-28 03:56:00,45.4,25.8,29.93,SSW,205,0.0,0.0,46,0.00,,,0.00,0,Wunderground v.1.15,2013-03-28 10:56:00,
2013-03-28 04:01:00,47.3,28.6,29.92,SSW,205,0.0,0.0,48,0.00,,,0.00,0,Wunderground v.1.15,2013-03-28 11:01:00,
2013-03-28 04:06:00,48.9,27.9,29.91,SSW,205,0.0,0.0,44,0.00,,,0.00,0,Wunderground v.1.15,2013-03-28 11:06:00,
2013-03-28 04:16:00,46.3,23.9,29.92,SSW,205,0.0,0.0,41,0.00,,,0.00,0,Wunderground v.1.15,2013-03-28 11:16:00,
2013-03-28 04:26:00,45.0,25.4,29.93,SSW,205,0.0,0.0,46,0.00,,,0.00,0,Wunderground v.1.15,2013-03-28 11:26:00,
2013-03-28 04:31:00,44.4,25.4,29.93,SSW,205,0.0,0.0,47,0.00,,,0.00,0,Wunderground v.1.15,2013-03-28 11:31:00,
2013-03-28 04:46:00,45.5,26.9,29.94,SSW,205,0.0,0.0,48,0.00,,,0.00,0,Wunderground v.1.15,2013-03-28 11:46:00,
2013-03-28 04:51:00,45.6,27.0,29.93,SSW,205,0.0,0.0,48,0.00,,,0.00,0,Wunderground v.1.15,2013-03-28 11:51:00,
2013-03-28 05:01:00,44.6,25.6,29.95,SSW,205,0.0,0.0,47,0.00,,,0.00,0,Wunderground v.1.15,2013-03-28 12:01:00,
2013-03-28 05:11:00,44.6,26.6,29.95,SSW,205,0.0,0.0,49,0.00,,,0.00,0,Wunderground v.1.15,2013-03-28 12:11:00,
2013-03-28 05:26:00,45.5,26.9,29.95,SSW,205,0.0,0.0,48,0.00,,,0.00,0,Wunderground v.1.15,2013-03-28 12:26:00,
2013-03-28 05:31:00,45.8,27.2,29.95,SSW,205,0.0,0.0,48,0.00,,,0.00,0,Wunderground v.1.15,2013-03-28 12:31:00,
2013-03-28 05:41:00,45.0,26.5,29.96,SSW,205,0.0,0.0,48,0.00,,,0.00,0,Wunderground v.1.15,2013-03-28 12:41:00,
2013-03-28 05:46:00,44.1,26.6,29.96,SSW,205,0.0,0.0,50,0.00,,,0.00,0,Wunderground v.1.15,2013-03-28 12:46:00,
2013-03-28 05:51:00,44.3,26.3,29.96,SSW,205,0.0,0.0,49,0.00,,,0.00,0,Wunderground v.1.15,2013-03-28 12:51:00,
2013-03-28 05:56:00,44.2,26.7,29.97,SSW,205,0.0,0.0,50,0.00,,,0.00,0,Wunderground v.1.15,2013-03-28 12:56:00,
2013-03-28 06:01:00,44.5,27.0,29.97,SSW,205,0.0,0.0,50,0.00,,,0.00,0,Wunderground v.1.15,2013-03-28 13:01:00,
2013-03-28 06:11:00,41.9,24.6,30.00,SSW,205,0.0,0.0,50,0.00,,,0.00,0,Wunderground v.1.15,2013-03-28 13:11:00,
2013-03-28 06:16:00,42.0,26.5,30.00,SSW,205,0.0,0.0,54,0.00,,,0.00,5,Wunderground v.1.15,2013-03-28 13:16:00,
2013-03-28 06:21:00,44.1,28.5,29.99,SSW,205,0.0,0.0,54,0.00,,,0.00,7,Wunderground v.1.15,2013-03-28 13:21:00,
2013-03-28 06:31:00,45.6,28.5,29.99,SSW,205,0.0,0.0,51,0.00,,,0.00,14,Wunderground v.1.15,2013-03-28 13:31:00,
2013-03-28 06:36:00,45.4,28.3,29.99,SSW,205,0.0,0.0,51,0.00,,,0.00,19,Wunderground v.1.15,2013-03-28 13:36:00,
2013-03-28 06:41:00,44.7,27.2,29.99,SSW,205,0.0,0.0,50,0.00,,,0.00,23,Wunderground v.1.15,2013-03-28 13:41:00,
2013-03-28 06:46:00,44.0,27.5,30.00,SSW,205,0.0,0.0,52,0.00,,,0.00,40,Wunderground v.1.15,2013-03-28 13:46:00,
2013-03-28 06:51:00,44.5,28.0,30.00,SSW,205,0.0,0.0,52,0.00,,,0.00,40,Wunderground v.1.15,2013-03-28 13:51:00,
2013-03-28 06:56:00,45.3,28.2,29.99,SSW,205,0.0,0.0,51,0.00,,,0.00,69,Wunderground v.1.15,2013-03-28 13:56:00,
2013-03-28 07:01:00,46.5,28.8,30.00,SSW,205,0.0,0.0,50,0.00,,,0.00,95,Wunderground v.1.15,2013-03-28 14:01:00,
2013-03-28 07:11:00,49.0,29.6,29.99,SSW,205,0.0,0.0,47,0.00,,,0.00,135,Wunderground v.1.15,2013-03-28 14:11:00,
2013-03-28 07:16:00,50.3,30.3,29.99,SSW,205,0.0,0.0,46,0.00,,,0.00,153,Wunderground v.1.15,2013-03-28 14:16:00,
2013-03-28 07:21:00,51.6,30.4,29.98,SSW,205,0.0,0.0,44,0.00,,,0.00,162,Wunderground v.1.15,2013-03-28 14:21:00,
2013-03-28 07:31:00,53.1,30.6,29.98,SSW,205,0.0,0.0,42,0.00,,,0.00,225,Wunderground v.1.15,2013-03-28 14:31:00,
2013-03-28 07:36:00,53.7,31.1,29.98,SSW,205,0.0,0.0,42,0.00,,,0.00,248,Wunderground v.1.15,2013-03-28 14:36:00,
2013-03-28 07:41:00,54.8,30.9,29.97,SSW,205,0.0,0.0,40,0.00,,,0.00,267,Wunderground v.1.15,2013-03-28 14:41:00,
2013-03-28 07:46:00,56.0,31.4,29.97,SSW,205,0.0,0.0,39,0.00,,,0.00,288,Wunderground v.1.15,2013-03-28 14:46:00,
2013-03-28 07:51:00,57.2,31.8,29.96,SSW,205,0.0,1.0,38,0.00,,,0.00,306,Wunderground v.1.15,2013-03-28 14:51:00,
2013-03-28 08:01:00,58.8,31.9,29.96,SSW,203,1.0,3.0,36,0.00,,,0.00,362,Wunderground v.1.15,2013-03-28 15:01:00,
2013-03-28 08:06:00,59.7,32.0,29.96,SSW,201,2.0,3.0,35,0.00,,,0.00,392,Wunderground v.1.15,2013-03-28 15:06:00,
2013-03-28 08:11:00,60.5,32.7,29.95,SSW,195,2.0,4.0,35,0.00,,,0.00,388,Wunderground v.1.15,2013-03-28 15:11:00,
2013-03-28 08:16:00,61.1,32.5,29.95,South,189,2.0,7.0,34,0.00,,,0.00,394,Wunderground v.1.15,2013-03-28 15:16:00,
2013-03-28 08:21:00,61.6,32.9,29.95,South,180,3.0,4.0,34,0.00,,,0.00,403,Wunderground v.1.15,2013-03-28 15:21:00,
2013-03-28 08:26:00,62.0,33.3,29.95,SSE,168,4.0,4.0,34,0.00,,,0.00,431,Wunderground v.1.15,2013-03-28 15:26:00,
2013-03-28 08:41:00,63.8,34.1,29.94,SSE,147,6.0,7.0,33,0.00,,,0.00,503,Wunderground v.1.15,2013-03-28 15:41:00,
2013-03-28 08:46:00,64.5,34.0,29.94,SSE,150,6.0,7.0,32,0.00,,,0.00,520,Wunderground v.1.15,2013-03-28 15:46:00,
2013-03-28 08:51:00,65.3,34.7,29.94,SSE,151,5.0,5.0,32,0.00,,,0.00,410,Wunderground v.1.15,2013-03-28 15:51:00,
2013-03-28 09:01:00,66.2,34.7,29.93,SSE,154,5.0,5.0,31,0.00,,,0.00,575,Wunderground v.1.15,2013-03-28 16:01:00,
2013-03-28 09:06:00,66.7,35.1,29.92,SSE,168,6.0,6.0,31,0.00,,,0.00,582,Wunderground v.1.15,2013-03-28 16:06:00,
2013-03-28 09:21:00,67.6,35.9,29.92,SSE,166,9.0,9.0,31,0.00,,,0.00,640,Wunderground v.1.15,2013-03-28 16:21:00,
2013-03-28 09:26:00,67.4,35.7,29.92,SE,136,8.0,9.0,31,0.00,,,0.00,612,Wunderground v.1.15,2013-03-28 16:26:00,
2013-03-28 09:31:00,67.7,35.1,29.92,SSE,161,9.0,9.0,30,0.00,,,0.00,691,Wunderground v.1.15,2013-03-28 16:31:00,
2013-03-28 09:41:00,68.8,35.2,29.92,South,177,9.0,9.0,29,0.00,,,0.00,798,Wunderground v.1.15,2013-03-28 16:41:00,
2013-03-28 09:51:00,68.9,34.4,29.92,South,172,9.0,9.0,28,0.00,,,0.00,469,Wunderground v.1.15,2013-03-28 16:51:00,
2013-03-28 10:01:00,69.1,33.7,29.92,SSW,198,11.0,12.0,27,0.00,,,0.00,708,Wunderground v.1.15,2013-03-28 17:01:00,
2013-03-28 10:06:00,69.8,34.3,29.93,South,183,12.0,12.0,27,0.00,,,0.00,773,Wunderground v.1.15,2013-03-28 17:06:00,
2013-03-28 10:11:00,69.9,34.4,29.93,South,188,11.0,11.0,27,0.00,,,0.00,872,Wunderground v.1.15,2013-03-28 17:11:00,
2013-03-28 10:16:00,70.8,34.2,29.92,South,174,10.0,13.0,26,0.00,,,0.00,872,Wunderground v.1.15,2013-03-28 17:16:00,
2013-03-28 10:21:00,69.9,33.4,29.92,South,188,10.0,10.0,26,0.00,,,0.00,345,Wunderground v.1.15,2013-03-28 17:21:00,
2013-03-28 10:31:00,71.0,33.4,29.92,South,176,11.0,14.0,25,0.00,,,0.00,891,Wunderground v.1.15,2013-03-28 17:31:00,
2013-03-28 10:36:00,71.2,32.5,29.92,South,178,11.0,14.0,24,0.00,,,0.00,863,Wunderground v.1.15,2013-03-28 17:36:00,
2013-03-28 10:41:00,71.8,33.0,29.91,SSE,168,11.0,11.0,24,0.00,,,0.00,833,Wunderground v.1.15,2013-03-28 17:41:00,
2013-03-28 10:46:00,72.0,34.2,29.91,SSW,207,11.0,11.0,25,0.00,,,0.00,858,Wunderground v.1.15,2013-03-28 17:46:00,
2013-03-28 10:56:00,72.9,32.9,29.91,SSW,207,10.0,11.0,23,0.00,,,0.00,874,Wunderground v.1.15,2013-03-28 17:56:00,
2013-03-28 11:06:00,73.4,32.2,29.93,South,182,10.0,11.0,22,0.00,,,0.00,905,Wunderground v.1.15,2013-03-28 18:06:00,
2013-03-28 11:16:00,73.8,33.7,29.92,South,185,10.0,14.0,23,0.00,,,0.00,861,Wunderground v.1.15,2013-03-28 18:16:00,
2013-03-28 11:21:00,74.6,32.1,29.92,SSW,211,9.0,9.0,21,0.00,,,0.00,729,Wunderground v.1.15,2013-03-28 18:21:00,
2013-03-28 11:26:00,74.0,31.6,29.92,South,173,10.0,10.0,21,0.00,,,0.00,784,Wunderground v.1.15,2013-03-28 18:26:00,
2013-03-28 11:36:00,74.4,31.9,29.92,SSW,212,10.0,12.0,21,0.00,,,0.00,925,Wunderground v.1.15,2013-03-28 18:36:00,
2013-03-28 11:41:00,74.4,30.7,29.92,South,187,10.0,10.0,20,0.00,,,0.00,877,Wunderground v.1.15,2013-03-28 18:41:00,
2013-03-28 11:46:00,74.5,29.5,29.92,South,180,10.0,10.0,19,0.00,,,0.00,949,Wunderground v.1.15,2013-03-28 18:46:00,
2013-03-28 11:56:00,75.9,30.7,29.91,SSW,200,8.0,11.0,19,0.00,,,0.00,814,Wunderground v.1.15,2013-03-28 18:56:00,
2013-03-28 12:01:00,74.6,29.6,29.92,South,187,9.0,12.0,19,0.00,,,0.00,432,Wunderground v.1.15,2013-03-28 19:01:00,
2013-03-28 12:11:00,73.4,29.9,29.92,SSW,210,9.0,11.0,20,0.00,,,0.00,619,Wunderground v.1.15,2013-03-28 19:11:00,
2013-03-28 12:16:00,74.3,31.8,29.91,South,176,8.0,11.0,21,0.00,,,0.00,624,Wunderground v.1.15,2013-03-28 19:16:00,
2013-03-28 12:31:00,74.5,29.5,29.91,SSW,195,5.0,8.0,19,0.00,,,0.00,621,Wunderground v.1.15,2013-03-28 19:31:00,
2013-03-28 12:46:00,73.8,28.9,29.91,South,178,9.0,15.0,19,0.00,,,0.00,455,Wunderground v.1.15,2013-03-28 19:46:00,
2013-03-28 12:51:00,75.7,29.2,29.89,SSW,210,10.0,16.0,18,0.00,,,0.00,1121,Wunderground v.1.15,2013-03-28 19:51:00,
2013-03-28 13:01:00,75.5,30.3,29.90,SSW,201,10.0,10.0,19,0.00,,,0.00,779,Wunderground v.1.15,2013-03-28 20:01:00,
2013-03-28 13:06:00,76.5,28.4,29.90,South,176,7.0,10.0,17,0.00,,,0.00,928,Wunderground v.1.15,2013-03-28 20:06:00,
2013-03-28 13:16:00,76.2,29.6,29.90,SSW,213,8.0,10.0,18,0.00,,,0.00,995,Wunderground v.1.15,2013-03-28 20:16:00,
2013-03-28 13:21:00,75.6,29.1,29.90,ESE,106,6.0,6.0,18,0.00,,,0.00,997,Wunderground v.1.15,2013-03-28 20:21:00,
2013-03-28 13:31:00,78.2,29.8,29.88,West,268,4.0,6.0,17,0.00,,,0.00,928,Wunderground v.1.15,2013-03-28 20:31:00,
2013-03-28 13:36:00,77.4,29.1,29.89,WSW,257,4.0,6.0,17,0.00,,,0.00,939,Wunderground v.1.15,2013-03-28 20:36:00,
2013-03-28 13:41:00,77.4,27.7,29.88,SW,236,3.0,9.0,16,0.00,,,0.00,951,Wunderground v.1.15,2013-03-28 20:41:00,
2013-03-28 13:51:00,77.8,26.4,29.88,South,178,7.0,7.0,15,0.00,,,0.00,754,Wunderground v.1.15,2013-03-28 20:51:00,
2013-03-28 13:56:00,77.3,27.6,29.88,South,182,6.0,7.0,16,0.00,,,0.00,761,Wunderground v.1.15,2013-03-28 20:56:00,
2013-03-28 14:01:00,76.6,27.0,29.90,SSW,193,4.0,11.0,16,0.00,,,0.00,425,Wunderground v.1.15,2013-03-28 21:01:00,
2013-03-28 14:11:00,77.1,25.9,29.89,SSW,207,7.0,7.0,15,0.00,,,0.00,780,Wunderground v.1.15,2013-03-28 21:11:00,
2013-03-28 14:16:00,76.6,25.5,29.89,SSE,158,5.0,9.0,15,0.00,,,0.00,854,Wunderground v.1.15,2013-03-28 21:16:00,
2013-03-28 14:26:00,79.0,25.7,29.88,WSW,253,5.0,10.0,14,0.00,,,0.00,853,Wunderground v.1.15,2013-03-28 21:26:00,
2013-03-28 14:36:00,78.1,25.0,29.88,West,259,5.0,8.0,14,0.00,,,0.00,826,Wunderground v.1.15,2013-03-28 21:36:00,
2013-03-28 14:41:00,77.2,25.9,29.87,West,262,3.0,3.0,15,0.00,,,0.00,687,Wunderground v.1.15,2013-03-28 21:41:00,
2013-03-28 14:46:00,76.1,26.6,29.88,West,262,2.0,3.0,16,0.00,,,0.00,705,Wunderground v.1.15,2013-03-28 21:46:00,
2013-03-28 14:56:00,77.5,26.2,29.86,SSW,192,3.0,5.0,15,0.00,,,0.00,795,Wunderground v.1.15,2013-03-28 21:56:00,
2013-03-28 15:01:00,76.7,25.5,29.87,SSW,193,4.0,4.0,15,0.00,,,0.00,728,Wunderground v.1.15,2013-03-28 22:01:00,
2013-03-28 15:11:00,78.2,26.7,29.87,SSW,206,4.0,4.0,15,0.00,,,0.00,752,Wunderground v.1.15,2013-03-28 22:11:00,
2013-03-28 15:16:00,78.3,26.8,29.87,WSW,245,4.0,5.0,15,0.00,,,0.00,728,Wunderground v.1.15,2013-03-28 22:16:00,
2013-03-28 15:21:00,78.2,26.7,29.87,West,262,3.0,3.0,15,0.00,,,0.00,673,Wunderground v.1.15,2013-03-28 22:21:00,
2013-03-28 15:31:00,78.2,26.7,29.87,West,263,2.0,5.0,15,0.00,,,0.00,686,Wunderground v.1.15,2013-03-28 22:31:00,
2013-03-28 15:36:00,78.3,25.1,29.87,WSW,253,4.0,5.0,14,0.00,,,0.00,661,Wunderground v.1.15,2013-03-28 22:36:00,
2013-03-28 15:46:00,77.6,24.6,29.87,West,268,4.0,5.0,14,0.00,,,0.00,417,Wunderground v.1.15,2013-03-28 22:46:00,
2013-03-28 15:51:00,76.2,23.5,29.88,West,266,5.0,5.0,14,0.00,,,0.00,216,Wunderground v.1.15,2013-03-28 22:51:00,
2013-03-28 16:01:00,76.8,25.6,29.88,WNW,286,2.0,3.0,15,0.00,,,0.00,466,Wunderground v.1.15,2013-03-28 23:01:00,
2013-03-28 16:06:00,77.5,24.5,29.88,West,273,3.0,6.0,14,0.00,,,0.00,522,Wunderground v.1.15,2013-03-28 23:06:00,
2013-03-28 16:11:00,77.0,24.1,29.88,West,274,2.0,8.0,14,0.00,,,0.00,573,Wunderground v.1.15,2013-03-28 23:11:00,
2013-03-28 16:21:00,78.1,21.3,29.88,West,281,6.0,7.0,12,0.00,,,0.00,297,Wunderground v.1.15,2013-03-28 23:21:00,
2013-03-28 16:26:00,77.3,20.7,29.89,West,262,7.0,7.0,12,0.00,,,0.00,374,Wunderground v.1.15,2013-03-28 23:26:00,
2013-03-28 16:31:00,76.9,22.3,29.89,West,262,5.0,5.0,13,0.00,,,0.00,332,Wunderground v.1.15,2013-03-28 23:31:00,
2013-03-28 16:41:00,76.3,21.8,29.90,West,267,7.0,7.0,13,0.00,,,0.00,295,Wunderground v.1.15,2013-03-28 23:41:00,
2013-03-28 16:46:00,76.4,21.9,29.90,WNW,298,7.0,7.0,13,0.00,,,0.00,445,Wunderground v.1.15,2013-03-28 23:46:00,
2013-03-28 16:51:00,76.8,24.0,29.89,West,278,8.0,8.0,14,0.00,,,0.00,401,Wunderground v.1.15,2013-03-28 23:51:00,
2013-03-28 17:01:00,76.6,23.8,29.89,West,277,7.0,7.0,14,0.00,,,0.00,264,Wunderground v.1.15,2013-03-29 00:01:00,
2013-03-28 17:06:00,76.1,23.4,29.90,West,281,6.0,7.0,14,0.00,,,0.00,239,Wunderground v.1.15,2013-03-29 00:06:00,
2013-03-28 17:11:00,75.7,23.1,29.90,SW,232,6.0,6.0,14,0.00,,,0.00,264,Wunderground v.1.15,2013-03-29 00:11:00,
2013-03-28 17:26:00,74.9,24.1,29.90,WSW,246,8.0,9.0,15,0.00,,,0.00,153,Wunderground v.1.15,2013-03-29 00:26:00,
2013-03-28 17:31:00,74.3,23.6,29.91,WSW,241,7.0,7.0,15,0.00,,,0.00,105,Wunderground v.1.15,2013-03-29 00:31:00,
2013-03-28 17:36:00,73.7,24.7,29.91,WSW,238,7.0,7.0,16,0.00,,,0.00,81,Wunderground v.1.15,2013-03-29 00:36:00,
2013-03-28 17:41:00,73.0,24.1,29.91,WSW,249,5.0,6.0,16,0.00,,,0.00,67,Wunderground v.1.15,2013-03-29 00:41:00,
2013-03-28 17:51:00,72.4,23.6,29.92,WSW,253,5.0,5.0,16,0.00,,,0.00,70,Wunderground v.1.15,2013-03-29 00:51:00,
2013-03-28 17:56:00,72.0,23.3,29.92,WSW,253,2.0,5.0,16,0.00,,,0.00,58,Wunderground v.1.15,2013-03-29 00:56:00,
2013-03-28 18:01:00,71.8,23.2,29.92,WSW,250,2.0,6.0,16,0.00,,,0.00,51,Wunderground v.1.15,2013-03-29 01:01:00,
2013-03-28 18:06:00,71.5,22.9,29.92,WSW,249,4.0,6.0,16,0.00,,,0.00,49,Wunderground v.1.15,2013-03-29 01:06:00,
2013-03-28 18:11:00,71.2,22.7,29.93,WSW,249,2.0,2.0,16,0.00,,,0.00,39,Wunderground v.1.15,2013-03-29 01:11:00,
2013-03-28 18:16:00,70.8,22.3,29.93,WSW,249,1.0,2.0,16,0.00,,,0.00,28,Wunderground v.1.15,2013-03-29 01:16:00,
2013-03-28 18:26:00,69.7,22.9,29.93,WSW,249,1.0,4.0,17,0.00,,,0.00,14,Wunderground v.1.15,2013-03-29 01:26:00,
2013-03-28 18:31:00,69.4,22.7,29.94,WSW,249,1.0,6.0,17,0.00,,,0.00,7,Wunderground v.1.15,2013-03-29 01:31:00,
2013-03-28 18:41:00,68.5,21.9,29.95,WSW,249,1.0,1.0,17,0.00,,,0.00,0,Wunderground v.1.15,2013-03-29 01:41:00,
2013-03-28 18:46:00,67.9,22.8,29.95,WSW,249,1.0,1.0,18,0.00,,,0.00,0,Wunderground v.1.15,2013-03-29 01:46:00,
2013-03-28 18:51:00,67.3,22.3,29.96,WSW,249,0.0,0.0,18,0.00,,,0.00,0,Wunderground v.1.15,2013-03-29 01:51:00,
2013-03-28 19:01:00,66.0,21.2,29.96,WSW,249,0.0,0.0,18,0.00,,,0.00,0,Wunderground v.1.15,2013-03-29 02:01:00,
2013-03-28 19:06:00,65.4,22.0,29.91,WSW,249,0.0,0.0,19,0.00,,,0.00,0,Wunderground v.1.15,2013-03-29 02:06:00,
2013-03-28 19:16:00,64.3,21.1,29.93,WSW,249,0.0,0.0,19,0.00,,,0.00,0,Wunderground v.1.15,2013-03-29 02:16:00,
2013-03-28 19:26:00,63.9,22.0,29.92,WSW,249,0.0,0.0,20,0.00,,,0.00,0,Wunderground v.1.15,2013-03-29 02:26:00,
2013-03-28 19:36:00,64.1,20.9,29.93,WSW,249,0.0,0.0,19,0.00,,,0.00,0,Wunderground v.1.15,2013-03-29 02:36:00,
2013-03-28 19:41:00,63.7,21.8,29.93,WSW,249,0.0,0.0,20,0.00,,,0.00,0,Wunderground v.1.15,2013-03-29 02:41:00,
2013-03-28 19:46:00,63.2,21.4,29.93,WSW,249,0.0,0.0,20,0.00,,,0.00,0,Wunderground v.1.15,2013-03-29 02:46:00,
2013-03-28 20:01:00,61.2,20.9,29.95,WSW,249,0.0,0.0,21,0.00,,,0.00,0,Wunderground v.1.15,2013-03-29 03:01:00,
2013-03-28 20:06:00,60.3,21.2,29.92,WSW,249,0.0,0.0,22,0.00,,,0.00,0,Wunderground v.1.15,2013-03-29 03:06:00,
2013-03-28 20:16:00,59.2,20.3,29.94,WSW,249,0.0,0.0,22,0.00,,,0.00,0,Wunderground v.1.15,2013-03-29 03:16:00,
2013-03-28 20:21:00,59.0,20.2,29.94,WSW,249,0.0,0.0,22,0.00,,,0.00,0,Wunderground v.1.15,2013-03-29 03:21:00,
2013-03-28 20:26:00,58.1,19.4,29.94,WSW,249,0.0,0.0,22,0.00,,,0.00,0,Wunderground v.1.15,2013-03-29 03:26:00,
2013-03-28 20:31:00,58.1,20.4,29.94,WSW,249,0.0,0.0,23,0.00,,,0.00,0,Wunderground v.1.15,2013-03-29 03:31:00,
2013-03-28 20:36:00,58.0,20.4,29.94,WSW,249,0.0,0.0,23,0.00,,,0.00,0,Wunderground v.1.15,2013-03-29 03:36:00,
2013-03-28 20:51:00,56.2,18.8,29.96,WSW,249,0.0,0.0,23,0.00,,,0.00,0,Wunderground v.1.15,2013-03-29 03:51:00,
2013-03-28 20:56:00,55.5,19.2,29.96,WSW,249,0.0,0.0,24,0.00,,,0.00,0,Wunderground v.1.15,2013-03-29 03:56:00,
2013-03-28 21:01:00,56.8,20.3,29.95,WSW,249,0.0,0.0,24,0.00,,,0.00,0,Wunderground v.1.15,2013-03-29 04:01:00,
2013-03-28 21:06:00,57.3,19.8,29.95,WSW,249,0.0,0.0,23,0.00,,,0.00,0,Wunderground v.1.15,2013-03-29 04:06:00,
2013-03-28 21:11:00,57.7,20.1,29.94,WSW,249,0.0,0.0,23,0.00,,,0.00,0,Wunderground v.1.15,2013-03-29 04:11:00,
2013-03-28 21:21:00,58.2,20.5,29.94,WSW,249,0.0,0.0,23,0.00,,,0.00,0,Wunderground v.1.15,2013-03-29 04:21:00,
2013-03-28 21:31:00,58.2,20.5,29.95,WSW,249,0.0,0.0,23,0.00,,,0.00,0,Wunderground v.1.15,2013-03-29 04:31:00,
2013-03-28 21:36:00,57.4,19.9,29.95,WSW,249,0.0,0.0,23,0.00,,,0.00,0,Wunderground v.1.15,2013-03-29 04:36:00,
2013-03-28 21:41:00,57.4,20.9,29.95,WSW,249,0.0,0.0,24,0.00,,,0.00,0,Wunderground v.1.15,2013-03-29 04:41:00,
2013-03-28 21:46:00,57.7,21.1,29.95,WSW,249,0.0,0.0,24,0.00,,,0.00,0,Wunderground v.1.15,2013-03-29 04:46:00,
2013-03-28 21:56:00,57.7,21.1,29.95,WSW,249,0.0,0.0,24,0.00,,,0.00,0,Wunderground v.1.15,2013-03-29 04:56:00,
2013-03-28 22:01:00,56.5,21.1,29.94,WSW,249,0.0,0.0,25,0.00,,,0.00,0,Wunderground v.1.15,2013-03-29 05:01:00,
2013-03-28 22:06:00,57.3,21.7,29.94,WSW,249,0.0,0.0,25,0.00,,,0.00,0,Wunderground v.1.15,2013-03-29 05:06:00,
2013-03-28 22:11:00,57.9,22.2,29.94,WSW,249,0.0,0.0,25,0.00,,,0.00,0,Wunderground v.1.15,2013-03-29 05:11:00,
2013-03-28 22:16:00,58.1,21.4,29.94,WSW,249,0.0,0.0,24,0.00,,,0.00,0,Wunderground v.1.15,2013-03-29 05:16:00,
2013-03-28 22:26:00,57.6,21.0,29.95,WSW,249,0.0,0.0,24,0.00,,,0.00,0,Wunderground v.1.15,2013-03-29 05:26:00,
2013-03-28 22:31:00,57.3,20.8,29.95,WSW,249,0.0,0.0,24,0.00,,,0.00,0,Wunderground v.1.15,2013-03-29 05:31:00,
2013-03-28 22:36:00,57.0,20.5,29.95,WSW,249,0.0,0.0,24,0.00,,,0.00,0,Wunderground v.1.15,2013-03-29 05:36:00,
2013-03-28 22:41:00,56.4,20.0,29.95,WSW,249,0.0,0.0,24,0.00,,,0.00,0,Wunderground v.1.15,2013-03-29 05:41:00,
2013-03-28 22:46:00,56.0,20.6,29.96,WSW,249,0.0,0.0,25,0.00,,,0.00,0,Wunderground v.1.15,2013-03-29 05:46:00,
2013-03-28 22:51:00,55.5,21.1,29.96,WSW,249,0.0,0.0,26,0.00,,,0.00,0,Wunderground v.1.15,2013-03-29 05:51:00,
2013-03-28 23:01:00,56.4,20.0,29.95,WSW,249,0.0,0.0,24,0.00,,,0.00,0,Wunderground v.1.15,2013-03-29 06:01:00,
2013-03-28 23:06:00,55.0,20.7,29.95,WSW,249,0.0,0.0,26,0.00,,,0.00,0,Wunderground v.1.15,2013-03-29 06:06:00,
2013-03-28 23:11:00,55.4,21.0,29.95,WSW,249,0.0,0.0,26,0.00,,,0.00,0,Wunderground v.1.15,2013-03-29 06:11:00,
2013-03-28 23:16:00,56.0,21.6,29.96,WSW,249,0.0,0.0,26,0.00,,,0.00,0,Wunderground v.1.15,2013-03-29 06:16:00,
2013-03-28 23:26:00,54.4,21.1,29.97,WSW,249,0.0,0.0,27,0.00,,,0.00,0,Wunderground v.1.15,2013-03-29 06:26:00,
2013-03-28 23:31:00,54.7,21.3,29.96,WSW,249,0.0,0.0,27,0.00,,,0.00,0,Wunderground v.1.15,2013-03-29 06:31:00,
2013-03-28 23:36:00,54.2,20.9,29.96,WSW,249,0.0,0.0,27,0.00,,,0.00,0,Wunderground v.1.15,2013-03-29 06:36:00,
2013-03-28 23:41:00,54.5,21.2,29.96,WSW,249,0.0,0.0,27,0.00,,,0.00,0,Wunderground v.1.15,2013-03-29 06:41:00,
2013-03-28 23:46:00,54.3,21.0,29.97,WSW,249,0.0,0.0,27,0.00,,,0.00,0,Wunderground v.1.15,2013-03-29 06:46:00,
2013-03-28 23:56:00,54.8,21.4,29.96,WSW,249,0.0,0.0,27,0.00,,,0.00,0,Wunderground v.1.15,2013-03-29 06:56:00,